GCLA/SPC METAR and TAF weather

Enter ICAO airport designator
Station Type Date Time Source
GCLA METAR 2018/12/10 18:00 UTC NOAA

GCLA 101800Z 03006KT 010V080 CAVOK 21/18 Q1023


Station Type Date Time Source
GCLA Decoded METAR 2018/12/10 18:00 UTC NOAA

La Palma / Aeropuerto, Spain (GCLA) 28-37N 017-45W 31M
Dec 10, 2018 - 01:00 PM EST / 2018.12.10 1800 UTC
Wind: from the NNE (030 degrees) at 7 MPH (6 KT) (direction variable):0
Visibility: greater than 7 mile(s):0
Temperature: 69 F (21 C)
Dew Point: 64 F (18 C)
Relative Humidity: 82%
Pressure (altimeter): 30.21 in. Hg (1023 hPa)
ob: GCLA 101800Z 03006KT 010V080 CAVOK 21/18 Q1023
cycle: 18

Station Type Date Time Source
GCLA TAF 2018/12/10 15:27 UTC NOAA

TAF GCLA 101400Z 1015/1115 04006KT 9999 FEW015 TX22/1114Z TN16/1106Z


Example: see airport list